sensor_id;sensor_type;location;lat;lon;timestamp;temperature;humidity
18268;DHT22;9260;49.998;19.880;2023-04-30T00:08:59;10.00;1.00
18268;DHT22;9260;49.998;19.880;2023-04-30T00:19:02;9.90;1.00
18268;DHT22;9260;49.998;19.880;2023-04-30T00:29:07;9.90;1.00
18268;DHT22;9260;49.998;19.880;2023-04-30T00:39:10;9.90;1.00
18268;DHT22;9260;49.998;19.880;2023-04-30T00:49:15;10.00;1.00
18268;DHT22;9260;49.998;19.880;2023-04-30T00:59:19;9.90;1.00
18268;DHT22;9260;49.998;19.880;2023-04-30T01:09:24;10.00;1.00
18268;DHT22;9260;49.998;19.880;2023-04-30T01:19:35;9.90;1.00
18268;DHT22;9260;49.998;19.880;2023-04-30T01:29:42;9.90;1.00
18268;DHT22;9260;49.998;19.880;2023-04-30T01:39:57;9.80;1.00
18268;DHT22;9260;49.998;19.880;2023-04-30T01:50:19;9.80;1.00
18268;DHT22;9260;49.998;19.880;2023-04-30T02:00:28;9.80;1.00
18268;DHT22;9260;49.998;19.880;2023-04-30T02:10:34;9.80;1.00
18268;DHT22;9260;49.998;19.880;2023-04-30T02:20:37;9.70;1.00
18268;DHT22;9260;49.998;19.880;2023-04-30T02:30:42;9.70;1.00
18268;DHT22;9260;49.998;19.880;2023-04-30T02:40:45;9.70;1.00
18268;DHT22;9260;49.998;19.880;2023-04-30T02:50:50;9.70;1.00
18268;DHT22;9260;49.998;19.880;2023-04-30T03:00:53;9.60;1.00
18268;DHT22;9260;49.998;19.880;2023-04-30T03:10:58;9.60;1.00
18268;DHT22;9260;49.998;19.880;2023-04-30T03:21:02;9.50;1.00
18268;DHT22;9260;49.998;19.880;2023-04-30T03:31:07;9.50;1.00
18268;DHT22;9260;49.998;19.880;2023-04-30T03:41:10;9.50;1.00
18268;DHT22;9260;49.998;19.880;2023-04-30T03:51:15;9.50;1.00
18268;DHT22;9260;49.998;19.880;2023-04-30T04:01:20;9.50;1.00
18268;DHT22;9260;49.998;19.880;2023-04-30T04:11:25;9.60;1.00
18268;DHT22;9260;49.998;19.880;2023-04-30T04:21:29;9.50;1.00
18268;DHT22;9260;49.998;19.880;2023-04-30T04:31:34;9.60;1.00
18268;DHT22;9260;49.998;19.880;2023-04-30T04:41:39;9.60;1.00
18268;DHT22;9260;49.998;19.880;2023-04-30T04:51:44;9.60;1.00
18268;DHT22;9260;49.998;19.880;2023-04-30T05:01:48;9.50;1.00
18268;DHT22;9260;49.998;19.880;2023-04-30T05:11:53;9.40;1.00
18268;DHT22;9260;49.998;19.880;2023-04-30T05:21:57;9.40;1.00
18268;DHT22;9260;49.998;19.880;2023-04-30T05:32:04;9.20;1.00
18268;DHT22;9260;49.998;19.880;2023-04-30T05:42:09;9.10;1.00
18268;DHT22;9260;49.998;19.880;2023-04-30T05:52:13;9.00;1.00
18268;DHT22;9260;49.998;19.880;2023-04-30T06:02:18;8.80;1.00
18268;DHT22;9260;49.998;19.880;2023-04-30T06:12:23;8.60;1.00
18268;DHT22;9260;49.998;19.880;2023-04-30T06:22:26;8.50;1.00
18268;DHT22;9260;49.998;19.880;2023-04-30T06:32:33;8.30;1.00
18268;DHT22;9260;49.998;19.880;2023-04-30T06:42:37;8.50;1.00
18268;DHT22;9260;49.998;19.880;2023-04-30T06:52:42;8.30;1.00
18268;DHT22;9260;49.998;19.880;2023-04-30T07:02:45;8.30;1.00
18268;DHT22;9260;49.998;19.880;2023-04-30T07:12:54;8.40;1.00
18268;DHT22;9260;49.998;19.880;2023-04-30T07:22:58;8.90;1.00
18268;DHT22;9260;49.998;19.880;2023-04-30T07:33:03;9.40;1.00
18268;DHT22;9260;49.998;19.880;2023-04-30T07:43:06;10.80;1.00
18268;DHT22;9260;49.998;19.880;2023-04-30T07:53:11;11.10;1.00
18268;DHT22;9260;49.998;19.880;2023-04-30T08:03:14;15.60;1.00
18268;DHT22;9260;49.998;19.880;2023-04-30T08:13:19;18.30;1.00
18268;DHT22;9260;49.998;19.880;2023-04-30T08:23:22;22.30;1.00
18268;DHT22;9260;49.998;19.880;2023-04-30T08:33:27;20.00;1.00
18268;DHT22;9260;49.998;19.880;2023-04-30T08:43:33;26.30;1.00
18268;DHT22;9260;49.998;19.880;2023-04-30T08:53:39;26.70;1.00
18268;DHT22;9260;49.998;19.880;2023-04-30T09:03:44;25.00;1.00
18268;DHT22;9260;49.998;19.880;2023-04-30T09:13:50;23.50;1.00
18268;DHT22;9260;49.998;19.880;2023-04-30T09:23:55;24.10;1.00
18268;DHT22;9260;49.998;19.880;2023-04-30T09:34:01;29.40;1.00
18268;DHT22;9260;49.998;19.880;2023-04-30T09:44:05;27.90;1.00
18268;DHT22;9260;49.998;19.880;2023-04-30T09:54:10;28.70;1.00
18268;DHT22;9260;49.998;19.880;2023-04-30T10:04:15;36.00;1.00
18268;DHT22;9260;49.998;19.880;2023-04-30T10:14:20;39.00;1.00
18268;DHT22;9260;49.998;19.880;2023-04-30T10:24:24;42.40;1.00
18268;DHT22;9260;49.998;19.880;2023-04-30T10:34:39;41.90;1.00
18268;DHT22;9260;49.998;19.880;2023-04-30T10:44:47;45.00;1.00
18268;DHT22;9260;49.998;19.880;2023-04-30T10:54:52;46.80;1.00
18268;DHT22;9260;49.998;19.880;2023-04-30T11:05:09;43.40;1.00
18268;DHT22;9260;49.998;19.880;2023-04-30T11:15:17;44.80;1.00
18268;DHT22;9260;49.998;19.880;2023-04-30T11:25:23;47.50;1.00
18268;DHT22;9260;49.998;19.880;2023-04-30T11:35:28;49.20;1.00
18268;DHT22;9260;49.998;19.880;2023-04-30T11:45:31;48.50;1.00
18268;DHT22;9260;49.998;19.880;2023-04-30T11:55:36;44.00;1.00
18268;DHT22;9260;49.998;19.880;2023-04-30T12:05:42;46.50;1.00
18268;DHT22;9260;49.998;19.880;2023-04-30T12:15:58;45.50;1.00
18268;DHT22;9260;49.998;19.880;2023-04-30T12:26:02;46.60;1.00
18268;DHT22;9260;49.998;19.880;2023-04-30T12:36:10;42.00;1.00
18268;DHT22;9260;49.998;19.880;2023-04-30T12:46:25;42.20;1.00
18268;DHT22;9260;49.998;19.880;2023-04-30T12:56:31;43.60;1.00
18268;DHT22;9260;49.998;19.880;2023-04-30T13:06:35;42.20;1.00
18268;DHT22;9260;49.998;19.880;2023-04-30T13:16:40;39.20;1.00
18268;DHT22;9260;49.998;19.880;2023-04-30T13:26:43;29.50;1.00
18268;DHT22;9260;49.998;19.880;2023-04-30T13:36:48;24.70;1.00
18268;DHT22;9260;49.998;19.880;2023-04-30T13:46:52;22.00;1.00
18268;DHT22;9260;49.998;19.880;2023-04-30T13:56:58;20.80;1.00
18268;DHT22;9260;49.998;19.880;2023-04-30T14:07:02;19.80;1.00
18268;DHT22;9260;49.998;19.880;2023-04-30T14:17:07;19.50;1.00
18268;DHT22;9260;49.998;19.880;2023-04-30T14:27:10;19.10;1.00
18268;DHT22;9260;49.998;19.880;2023-04-30T14:37:15;18.70;1.00
18268;DHT22;9260;49.998;19.880;2023-04-30T14:47:19;18.30;1.00
18268;DHT22;9260;49.998;19.880;2023-04-30T14:57:25;17.80;1.00
18268;DHT22;9260;49.998;19.880;2023-04-30T15:07:29;17.60;1.00
18268;DHT22;9260;49.998;19.880;2023-04-30T15:17:34;17.20;1.00
18268;DHT22;9260;49.998;19.880;2023-04-30T15:27:38;16.90;1.00
18268;DHT22;9260;49.998;19.880;2023-04-30T15:37:43;16.40;1.00
18268;DHT22;9260;49.998;19.880;2023-04-30T15:47:47;16.00;1.00
18268;DHT22;9260;49.998;19.880;2023-04-30T15:57:51;15.70;1.00
18268;DHT22;9260;49.998;19.880;2023-04-30T16:07:55;15.40;1.00
18268;DHT22;9260;49.998;19.880;2023-04-30T16:18:00;15.00;1.00
18268;DHT22;9260;49.998;19.880;2023-04-30T16:28:04;14.60;1.00
18268;DHT22;9260;49.998;19.880;2023-04-30T16:38:08;14.00;1.00
18268;DHT22;9260;49.998;19.880;2023-04-30T16:48:12;13.50;1.00
18268;DHT22;9260;49.998;19.880;2023-04-30T16:58:17;12.90;1.00
18268;DHT22;9260;49.998;19.880;2023-04-30T17:08:21;12.40;1.00
18268;DHT22;9260;49.998;19.880;2023-04-30T17:18:26;11.80;1.00
18268;DHT22;9260;49.998;19.880;2023-04-30T17:28:29;11.40;1.00
18268;DHT22;9260;49.998;19.880;2023-04-30T17:38:34;10.90;1.00
18268;DHT22;9260;49.998;19.880;2023-04-30T17:48:38;10.50;1.00
18268;DHT22;9260;49.998;19.880;2023-04-30T17:58:43;10.00;1.00
18268;DHT22;9260;49.998;19.880;2023-04-30T18:08:48;9.50;1.00
18268;DHT22;9260;49.998;19.880;2023-04-30T18:18:53;9.00;1.00
18268;DHT22;9260;49.998;19.880;2023-04-30T18:28:56;8.70;1.00
18268;DHT22;9260;49.998;19.880;2023-04-30T18:39:01;8.20;1.00
18268;DHT22;9260;49.998;19.880;2023-04-30T18:49:06;7.80;1.00
18268;DHT22;9260;49.998;19.880;2023-04-30T18:59:11;7.20;1.00
18268;DHT22;9260;49.998;19.880;2023-04-30T19:09:15;6.80;1.00
18268;DHT22;9260;49.998;19.880;2023-04-30T19:19:20;6.30;1.00
18268;DHT22;9260;49.998;19.880;2023-04-30T19:29:23;5.70;1.00
18268;DHT22;9260;49.998;19.880;2023-04-30T19:39:31;5.20;1.00
18268;DHT22;9260;49.998;19.880;2023-04-30T19:49:36;4.70;1.00
18268;DHT22;9260;49.998;19.880;2023-04-30T19:59:42;4.30;1.00
18268;DHT22;9260;49.998;19.880;2023-04-30T20:09:47;4.00;1.00
18268;DHT22;9260;49.998;19.880;2023-04-30T20:19:52;3.80;1.00
18268;DHT22;9260;49.998;19.880;2023-04-30T20:29:56;3.60;1.00
18268;DHT22;9260;49.998;19.880;2023-04-30T20:40:01;3.40;1.00
18268;DHT22;9260;49.998;19.880;2023-04-30T20:50:06;3.00;1.00
18268;DHT22;9260;49.998;19.880;2023-04-30T21:00:12;2.60;1.00
18268;DHT22;9260;49.998;19.880;2023-04-30T21:10:16;2.30;1.00
18268;DHT22;9260;49.998;19.880;2023-04-30T21:20:21;2.10;1.00
18268;DHT22;9260;49.998;19.880;2023-04-30T21:30:24;1.90;1.00
18268;DHT22;9260;49.998;19.880;2023-04-30T21:40:31;1.70;1.00
18268;DHT22;9260;49.998;19.880;2023-04-30T21:50:42;1.60;1.00
18268;DHT22;9260;49.998;19.880;2023-04-30T22:00:47;1.40;1.00
18268;DHT22;9260;49.998;19.880;2023-04-30T22:10:54;1.20;1.00
18268;DHT22;9260;49.998;19.880;2023-04-30T22:21:00;1.00;1.00
18268;DHT22;9260;49.998;19.880;2023-04-30T22:31:04;0.80;1.00
18268;DHT22;9260;49.998;19.880;2023-04-30T22:41:09;0.50;1.00
18268;DHT22;9260;49.998;19.880;2023-04-30T22:51:12;0.40;1.00
18268;DHT22;9260;49.998;19.880;2023-04-30T23:01:17;0.20;1.00
18268;DHT22;9260;49.998;19.880;2023-04-30T23:11:21;0.00;1.00
18268;DHT22;9260;49.998;19.880;2023-04-30T23:21:26;-0.20;1.00
18268;DHT22;9260;49.998;19.880;2023-04-30T23:31:29;-0.30;1.00
18268;DHT22;9260;49.998;19.880;2023-04-30T23:41:34;-0.30;1.00
18268;DHT22;9260;49.998;19.880;2023-04-30T23:51:37;-0.40;1.00
